»·PEaware :: CFC412 KRNO-KOTH

CFC412 :: KRNO-KOTH

FLIGHT INFORMATION

Flight Status: Arrived
Operator:
Canadian Armed Forces
More flights by this operator :: More flights under this callsign
Pilot: Anonymous 24180 (24180)
Aircraft: AIRBUS A320
(A320)
More flights by this aircraft type
Origin: KRNO Reno/Tahoe Intl
United States
Destination: KOTH North Bend Mun
United States
More flights between these airports :: More routes between these airports
Route: +ZEFFR6 BLKJK HALLE BORDY OED OTH
File this flight plan on PilotEdge
Remarks: RMK / SIMBRIEF
Altitude:
(Current/Filed)
38,000ft
Speed:
(Current/Filed)
459kts
Departed: 20-Nov-20 10:49 AM
Arrived: 20-Nov-20 11:52 AM
Distance/Time
Traveled:
309nm/1:02
Distance/Time
To Go:
Arrived

Flight Plot

Page will automatically refresh every two minutes.

Flight plan parsing failed; only flown route is shown


Map Options




Map Legend


Flown Route
Filed Route
Departure Airport
Arrival Airport
Navaid (VOR, NDB)
Fix

Horizontal Profiles

Position Reports

Time Latitude Longitude Heading Altitude Ground
Speed
20-Nov-20 10:27 39.505356 -119.772744 209 4417ft 0kts
20-Nov-20 10:28 39.505356 -119.772744 209 4417ft 0kts
20-Nov-20 10:29 39.505356 -119.772744 209 4417ft 0kts
20-Nov-20 10:30 39.505356 -119.772744 209 4417ft 0kts
20-Nov-20 10:31 39.505356 -119.772744 209 4417ft 0kts
20-Nov-20 10:32 39.505356 -119.772744 209 4417ft 0kts
20-Nov-20 10:33 39.505356 -119.772744 209 4417ft 0kts
20-Nov-20 10:34 39.505356 -119.772744 209 4417ft 0kts
20-Nov-20 10:35 39.505356 -119.772744 209 4417ft 0kts
20-Nov-20 10:36 39.505356 -119.772744 209 4417ft 0kts
20-Nov-20 10:37 39.505356 -119.772744 209 4417ft 0kts
20-Nov-20 10:38 39.505811 -119.772486 153 4418ft 2kts
20-Nov-20 10:39 39.505916 -119.773050 90 4417ft 0kts
20-Nov-20 10:40 39.505916 -119.773049 90 4417ft 0kts
20-Nov-20 10:41 39.505916 -119.773049 90 4417ft 0kts
20-Nov-20 10:42 39.505916 -119.773049 90 4417ft 0kts
20-Nov-20 10:43 39.505912 -119.772553 90 4418ft 0kts
20-Nov-20 10:44 39.506188 -119.771553 22 4418ft 8kts
20-Nov-20 10:45 39.509103 -119.771487 359 4419ft 11kts
20-Nov-20 10:46 39.512812 -119.771468 0 4422ft 14kts
20-Nov-20 10:47 39.513744 -119.770441 91 4422ft 6kts
20-Nov-20 10:48 39.501608 -119.769220 180 4428ft 153kts
20-Nov-20 10:49 39.450417 -119.769183 180 6996ft 225kts
20-Nov-20 10:50 39.377790 -119.769745 181 9871ft 288kts
20-Nov-20 10:51 39.305258 -119.737300 122 13641ft 310kts
20-Nov-20 10:52 39.287479 -119.629584 59 16541ft 346kts
20-Nov-20 10:53 39.348870 -119.518001 49 17682ft 414kts
20-Nov-20 10:54 39.439408 -119.417734 20 19146ft 437kts
20-Nov-20 10:55 39.552206 -119.423237 325 19502ft 408kts
20-Nov-20 10:56 39.632102 -119.526247 306 21324ft 409kts
20-Nov-20 10:57 39.707977 -119.637879 306 23126ft 416kts
20-Nov-20 10:58 39.784976 -119.751383 305 24708ft 424kts
20-Nov-20 10:59 39.863841 -119.868068 305 26172ft 431kts
20-Nov-20 11:00 39.948158 -119.980510 315 27456ft 446kts
20-Nov-20 11:01 40.045403 -120.081492 314 28842ft 445kts
20-Nov-20 11:02 40.141365 -120.181604 313 30376ft 438kts
20-Nov-20 11:03 40.235710 -120.280367 313 31871ft 432kts
20-Nov-20 11:04 40.328507 -120.377855 312 33217ft 427kts
20-Nov-20 11:05 40.420455 -120.474791 312 34452ft 422kts
20-Nov-20 11:06 40.511237 -120.570847 312 35471ft 420kts
20-Nov-20 11:07 40.602016 -120.667239 312 36438ft 418kts
20-Nov-20 11:08 40.692321 -120.763486 312 37320ft 418kts
20-Nov-20 11:09 40.782560 -120.860009 311 38001ft 420kts
20-Nov-20 11:10 40.873050 -120.957135 312 38431ft 420kts
20-Nov-20 11:11 40.963481 -121.054570 312 38430ft 421kts
20-Nov-20 11:12 41.051712 -121.155560 311 38429ft 421kts
20-Nov-20 11:13 41.138962 -121.259806 312 38416ft 425kts
20-Nov-20 11:14 41.227056 -121.365459 312 38436ft 426kts
20-Nov-20 11:15 41.314566 -121.470822 312 38456ft 426kts
20-Nov-20 11:16 41.402097 -121.576611 312 38446ft 425kts
20-Nov-20 11:18 41.489395 -121.682527 311 38433ft 425kts
20-Nov-20 11:19 41.576659 -121.788794 312 38452ft 425kts
20-Nov-20 11:20 41.663965 -121.895530 312 38453ft 424kts
20-Nov-20 11:21 41.750636 -122.001891 312 38441ft 424kts
20-Nov-20 11:22 41.837353 -122.108722 312 38450ft 423kts
20-Nov-20 11:23 41.923898 -122.215746 312 38456ft 424kts
20-Nov-20 11:24 42.010331 -122.323050 312 38462ft 423kts
20-Nov-20 11:25 42.096907 -122.430949 311 38458ft 424kts
20-Nov-20 11:26 42.183000 -122.538665 311 38467ft 423kts
20-Nov-20 11:27 42.269152 -122.646874 311 38477ft 424kts
20-Nov-20 11:28 42.355332 -122.755541 311 38470ft 423kts
20-Nov-20 11:29 42.441091 -122.864100 311 36074ft 425kts
20-Nov-20 11:30 42.525200 -122.972688 311 32359ft 413kts
20-Nov-20 11:31 42.608106 -123.082044 312 29204ft 422kts
20-Nov-20 11:32 42.692778 -123.194008 313 25658ft 432kts
20-Nov-20 11:33 42.780985 -123.311104 314 24443ft 447kts
20-Nov-20 11:34 42.868164 -123.427433 314 21883ft 433kts
20-Nov-20 11:34 42.931038 -123.527837 296 18490ft 409kts
20-Nov-20 11:36 42.983739 -123.684495 294 14253ft 381kts
20-Nov-20 11:36 43.019845 -123.792127 294 11942ft 371kts
20-Nov-20 11:37 43.060137 -123.912852 294 10699ft 322kts
20-Nov-20 11:38 43.094515 -124.016263 293 9988ft 278kts
20-Nov-20 11:39 43.125970 -124.110999 293 8567ft 271kts
20-Nov-20 11:40 43.151160 -124.206594 275 7114ft 265kts
20-Nov-20 11:41 43.168123 -124.302178 290 5948ft 238kts
20-Nov-20 11:42 43.196085 -124.374621 302 5242ft 195kts
20-Nov-20 11:43 43.229240 -124.429039 314 3579ft 189kts
20-Nov-20 11:44 43.269850 -124.474005 326 2405ft 189kts
20-Nov-20 11:45 43.312006 -124.477504 32 2398ft 145kts
20-Nov-20 11:46 43.340668 -124.440879 62 2405ft 141kts
20-Nov-20 11:47 43.360219 -124.393988 63 2194ft 139kts
20-Nov-20 11:48 43.378473 -124.349299 63 1467ft 131kts
20-Nov-20 11:49 43.396190 -124.305930 63 776ft 129kts
20-Nov-20 11:50 43.413751 -124.263001 64 94ft 127kts
20-Nov-20 11:51 43.419559 -124.247473 145 22ft 5kts
20-Nov-20 11:52 43.417556 -124.245860 149 28ft 12kts
20-Nov-20 11:53 43.417355 -124.246533 330 30ft 0kts

Navigation Log

Ident Type
Flight plan parsing failed, navigation log unavailable